Time,TemperatureF,DewpointF,PressureIn,WindDirection,WindDirectionDegrees,WindSpeedMPH,WindSpeedGustMPH,Humidity,HourlyPrecipIn,Conditions,Clouds,dailyrainin,SoftwareType,DateUTC
2013-09-15 00:11:00,57.0,54.0,29.81,ESE,107,0.0,1.0,91,-99.99,,,-99.99,,2013-09-15 07:11:00,
2013-09-15 00:22:00,57.0,54.0,29.81,ESE,107,0.0,1.0,91,-99.99,,,-99.99,,2013-09-15 07:22:00,
2013-09-15 00:52:00,57.0,54.0,29.81,ESE,107,0.0,1.0,91,-99.99,,,-99.99,,2013-09-15 07:52:00,
2013-09-15 01:21:00,56.0,53.0,29.80,ESE,107,0.0,1.0,91,-99.99,,,-99.99,,2013-09-15 08:21:00,
2013-09-15 01:32:00,56.0,53.0,29.80,ESE,107,0.0,1.0,91,-99.99,,,-99.99,,2013-09-15 08:32:00,
2013-09-15 01:52:00,56.0,53.0,29.80,ESE,107,0.0,1.0,91,-99.99,,,-99.99,,2013-09-15 08:52:00,
2013-09-15 02:12:00,55.0,53.0,29.80,ESE,107,0.0,2.0,92,-99.99,,,-99.99,,2013-09-15 09:12:00,
2013-09-15 02:21:00,55.0,53.0,29.80,ESE,107,0.0,2.0,92,-99.99,,,-99.99,,2013-09-15 09:21:00,
2013-09-15 02:53:00,55.0,52.0,29.80,ESE,107,0.0,0.0,91,-99.99,,,-99.99,,2013-09-15 09:53:00,
2013-09-15 03:13:00,54.0,52.0,29.80,ESE,107,0.0,0.0,92,-99.99,,,-99.99,,2013-09-15 10:13:00,
2013-09-15 03:23:00,54.0,52.0,29.80,ESE,107,0.0,0.0,92,-99.99,,,-99.99,,2013-09-15 10:23:00,
2013-09-15 03:53:00,54.0,52.0,30.24,North,0,0.0,0.0,92,-99.99,,,-99.99,,2013-09-15 10:53:00,
2013-09-15 04:22:00,54.0,52.0,30.20,North,0,0.0,0.0,92,-99.99,,,-99.99,,2013-09-15 11:22:00,
2013-09-15 04:52:00,54.0,52.0,30.20,North,0,0.0,0.0,92,-99.99,,,-99.99,,2013-09-15 11:52:00,
2013-09-15 05:21:00,54.0,52.0,30.21,WSW,250,0.0,0.0,92,-99.99,,,-99.99,,2013-09-15 12:21:00,
2013-09-15 05:52:00,53.0,52.0,30.21,WSW,250,0.0,0.0,95,-99.99,,,-99.99,,2013-09-15 12:52:00,
2013-09-15 06:11:00,53.0,52.0,30.21,WSW,250,0.0,0.0,95,-99.99,,,-99.99,,2013-09-15 13:11:00,
2013-09-15 06:21:00,53.0,52.0,30.21,WSW,250,0.0,0.0,95,-99.99,,,-99.99,,2013-09-15 13:21:00,
2013-09-15 06:53:00,53.0,52.0,30.22,NNE,18,1.0,2.0,96,-99.99,,,-99.99,,2013-09-15 13:53:00,
2013-09-15 07:22:00,55.0,54.0,30.22,NE,35,3.0,6.0,96,-99.99,,,-99.99,,2013-09-15 14:22:00,
2013-09-15 12:52:00,75.0,58.0,30.24,SW,236,2.0,8.0,56,-99.99,,,-99.99,,2013-09-15 19:52:00,
2013-09-15 13:11:00,74.0,58.0,30.24,WSW,239,2.0,12.0,57,-99.99,,,-99.99,,2013-09-15 20:11:00,
2013-09-15 13:22:00,74.0,58.0,30.24,WSW,239,2.0,12.0,57,-99.99,,,-99.99,,2013-09-15 20:22:00,
2013-09-15 13:53:00,73.0,57.0,30.24,WSW,247,10.0,13.0,57,-99.99,,,-99.99,,2013-09-15 20:53:00,
2013-09-15 14:02:00,73.0,57.0,30.24,WSW,247,10.0,13.0,57,-99.99,,,-99.99,,2013-09-15 21:02:00,
2013-09-15 14:21:00,75.0,57.0,30.24,West,264,6.0,12.0,54,-99.99,,,-99.99,,2013-09-15 21:21:00,
2013-09-15 14:34:00,75.0,57.0,30.24,West,264,6.0,12.0,54,-99.99,,,-99.99,,2013-09-15 21:34:00,
2013-09-15 14:54:00,75.0,57.0,30.24,West,264,6.0,12.0,54,-99.99,,,-99.99,,2013-09-15 21:54:00,
2013-09-15 15:14:00,74.0,57.0,30.23,SW,215,7.0,12.0,56,-99.99,,,-99.99,,2013-09-15 22:14:00,
2013-09-15 15:23:00,74.0,57.0,30.23,SW,215,7.0,12.0,56,-99.99,,,-99.99,,2013-09-15 22:23:00,
2013-09-15 15:53:00,74.0,59.0,30.22,SW,215,7.0,11.0,59,-99.99,,,-99.99,,2013-09-15 22:53:00,
2013-09-15 16:12:00,74.0,59.0,30.22,SW,216,7.0,10.0,59,-99.99,,,-99.99,,2013-09-15 23:12:00,
2013-09-15 16:22:00,74.0,59.0,30.22,SW,216,7.0,10.0,59,-99.99,,,-99.99,,2013-09-15 23:22:00,
2013-09-15 16:53:00,74.0,58.0,30.22,SSW,209,3.0,11.0,58,-99.99,,,-99.99,,2013-09-15 23:53:00,
2013-09-15 17:01:00,74.0,58.0,30.22,SSW,209,3.0,11.0,58,-99.99,,,-99.99,,2013-09-16 00:01:00,
2013-09-15 17:21:00,73.0,59.0,30.24,SW,229,7.0,11.0,61,-99.99,,,-99.99,,2013-09-16 00:21:00,
2013-09-15 17:52:00,72.0,59.0,29.82,South,184,2.0,10.0,63,-99.99,,,-99.99,,2013-09-16 00:52:00,
2013-09-15 18:12:00,71.0,58.0,29.83,South,176,2.0,7.0,64,-99.99,,,-99.99,,2013-09-16 01:12:00,
2013-09-15 18:21:00,71.0,58.0,29.83,South,176,2.0,7.0,64,-99.99,,,-99.99,,2013-09-16 01:21:00,
2013-09-15 18:52:00,68.0,57.0,29.83,SE,128,2.0,10.0,68,-99.99,,,-99.99,,2013-09-16 01:52:00,
2013-09-15 19:12:00,67.0,57.0,29.83,SSE,167,3.0,9.0,71,-99.99,,,-99.99,,2013-09-16 02:12:00,
2013-09-15 19:22:00,67.0,57.0,29.83,SSE,167,3.0,9.0,71,-99.99,,,-99.99,,2013-09-16 02:22:00,
2013-09-15 19:32:00,67.0,57.0,29.83,SSE,167,3.0,9.0,71,-99.99,,,-99.99,,2013-09-16 02:32:00,
2013-09-15 19:52:00,65.0,57.0,29.83,SSE,150,2.0,7.0,76,-99.99,,,-99.99,,2013-09-16 02:52:00,
2013-09-15 20:22:00,64.0,57.0,29.83,East,97,7.0,8.0,79,-99.99,,,-99.99,,2013-09-16 03:22:00,
2013-09-15 20:34:00,64.0,57.0,29.83,East,97,7.0,8.0,79,-99.99,,,-99.99,,2013-09-16 03:34:00,
2013-09-15 20:54:00,63.0,57.0,29.84,SE,131,1.0,8.0,81,-99.99,,,-99.99,,2013-09-16 03:54:00,
2013-09-15 21:13:00,63.0,57.0,29.85,SSE,155,1.0,7.0,81,-99.99,,,-99.99,,2013-09-16 04:13:00,
2013-09-15 21:24:00,63.0,57.0,29.86,ESE,102,3.0,7.0,82,-99.99,,,-99.99,,2013-09-16 04:24:00,
2013-09-15 21:54:00,63.0,58.0,29.86,East,97,1.0,2.0,83,-99.99,,,-99.99,,2013-09-16 04:54:00,
2013-09-15 22:12:00,63.0,58.0,29.86,East,93,0.0,5.0,84,-99.99,,,-99.99,,2013-09-16 05:12:00,
2013-09-15 22:22:00,63.0,58.0,29.86,East,93,0.0,5.0,84,-99.99,,,-99.99,,2013-09-16 05:22:00,
2013-09-15 22:53:00,63.0,58.0,29.85,SE,143,3.0,5.0,85,-99.99,,,-99.99,,2013-09-16 05:53:00,
2013-09-15 23:12:00,63.0,59.0,29.86,ENE,75,3.0,6.0,86,-99.99,,,-99.99,,2013-09-16 06:12:00,
2013-09-15 23:22:00,63.0,59.0,29.86,ENE,75,3.0,6.0,86,-99.99,,,-99.99,,2013-09-16 06:22:00,
2013-09-15 23:32:00,63.0,59.0,29.86,ENE,75,3.0,6.0,86,-99.99,,,-99.99,,2013-09-16 06:32:00,